createdAt,value
2018-06-29T00:00:05.266Z,20.87
2018-06-29T00:01:05.434Z,20.82
2018-06-29T00:02:05.399Z,20.85
2018-06-29T00:03:05.546Z,20.81
2018-06-29T00:04:05.533Z,20.77
2018-06-29T00:05:05.602Z,20.75
2018-06-29T00:06:05.686Z,20.77
2018-06-29T00:07:05.734Z,20.77
2018-06-29T00:08:05.817Z,20.74
2018-06-29T00:09:05.870Z,20.69
2018-06-29T00:10:05.942Z,20.67
2018-06-29T00:11:06.011Z,20.70
2018-06-29T00:12:06.085Z,20.70
2018-06-29T00:13:06.127Z,20.74
2018-06-29T00:14:06.319Z,20.69
2018-06-29T00:15:06.266Z,20.72
2018-06-29T00:16:06.338Z,20.67
2018-06-29T00:17:06.522Z,20.70
2018-06-29T00:18:06.478Z,20.58
2018-06-29T00:19:06.563Z,20.59
2018-06-29T00:20:06.598Z,20.62
2018-06-29T00:21:06.659Z,20.60
2018-06-29T00:22:06.802Z,20.60
2018-06-29T00:23:06.822Z,20.60
2018-06-29T00:24:07.432Z,20.60
2018-06-29T00:25:06.926Z,20.62
2018-06-29T00:26:06.992Z,20.59
2018-06-29T00:27:07.071Z,20.63
2018-06-29T00:28:07.195Z,20.59
2018-06-29T00:29:07.214Z,20.59
2018-06-29T00:30:07.528Z,20.58
2018-06-29T00:31:07.331Z,20.58
2018-06-29T00:32:07.410Z,20.47
2018-06-29T00:33:07.478Z,20.41
2018-06-29T00:34:07.524Z,20.44
2018-06-29T00:35:07.608Z,20.43
2018-06-29T00:36:07.660Z,20.48
2018-06-29T00:37:07.767Z,20.37
2018-06-29T00:38:08.004Z,20.50
2018-06-29T00:39:07.919Z,20.47
2018-06-29T00:40:07.935Z,20.36
2018-06-29T00:41:07.991Z,20.36
2018-06-29T00:42:08.091Z,20.37
2018-06-29T00:43:08.159Z,20.36
2018-06-29T00:44:08.191Z,20.36
2018-06-29T00:45:08.268Z,20.40
2018-06-29T00:46:08.467Z,20.29
2018-06-29T00:47:08.568Z,20.39
2018-06-29T00:48:08.468Z,20.29
2018-06-29T00:49:08.590Z,20.22
2018-06-29T00:50:08.584Z,20.25
2018-06-29T00:51:08.664Z,20.18
2018-06-29T00:52:08.724Z,20.21
2018-06-29T00:53:08.851Z,20.14
2018-06-29T00:54:08.856Z,20.06
2018-06-29T00:55:08.920Z,20.02
2018-06-29T00:56:09.068Z,20.00
2018-06-29T00:57:09.056Z,20.00
2018-06-29T00:58:09.127Z,19.99
2018-06-29T00:59:09.245Z,19.91
2018-06-29T01:00:09.252Z,19.79
2018-06-29T01:01:09.312Z,19.81
2018-06-29T01:02:09.396Z,19.82
2018-06-29T01:03:09.452Z,19.67
2018-06-29T01:04:09.636Z,19.69
2018-06-29T01:05:09.588Z,19.64
2018-06-29T01:06:09.792Z,19.55
2018-06-29T01:07:09.720Z,19.45
2018-06-29T01:08:09.790Z,19.52
2018-06-29T01:09:09.848Z,19.48
2018-06-29T01:10:09.916Z,19.56
2018-06-29T01:11:09.988Z,19.54
2018-06-29T01:12:10.104Z,19.47
2018-06-29T01:13:10.121Z,19.52
2018-06-29T01:14:10.184Z,19.45
2018-06-29T01:15:10.252Z,19.49
2018-06-29T01:16:10.320Z,19.47
2018-06-29T01:17:10.399Z,19.40
2018-06-29T01:18:10.580Z,19.33
2018-06-29T01:19:10.511Z,19.45
2018-06-29T01:20:10.572Z,19.40
2018-06-29T01:21:10.759Z,19.37
2018-06-29T01:22:10.721Z,19.36
2018-06-29T01:23:10.953Z,19.33
2018-06-29T01:24:10.840Z,19.40
2018-06-29T01:25:10.905Z,19.36
2018-06-29T01:26:10.985Z,19.36
2018-06-29T01:27:11.069Z,19.26
2018-06-29T01:28:11.125Z,19.44
2018-06-29T01:29:11.173Z,19.45
2018-06-29T01:30:11.237Z,19.41
2018-06-29T01:31:11.481Z,19.48
2018-06-29T01:32:11.381Z,19.44
2018-06-29T01:33:11.437Z,19.44
2018-06-29T01:34:11.501Z,19.36
2018-06-29T01:35:11.701Z,19.34
2018-06-29T01:36:11.635Z,19.33
2018-06-29T01:37:11.709Z,19.40
2018-06-29T01:38:11.777Z,19.34
2018-06-29T01:39:11.833Z,19.34
2018-06-29T01:40:11.901Z,19.31
2018-06-29T01:41:11.965Z,19.16
2018-06-29T01:42:12.042Z,19.21
2018-06-29T01:43:12.121Z,19.29
2018-06-29T01:44:12.161Z,19.30
2018-06-29T01:45:12.233Z,19.19
2018-06-29T01:46:12.297Z,19.22
2018-06-29T01:47:12.393Z,19.12
2018-06-29T01:48:12.446Z,19.24
2018-06-29T01:49:12.494Z,19.16
2018-06-29T01:50:12.558Z,19.08
2018-06-29T01:51:12.661Z,19.11
2018-06-29T01:52:12.709Z,19.02
2018-06-29T01:53:12.766Z,19.02
2018-06-29T01:54:12.938Z,18.96
2018-06-29T01:55:12.890Z,18.88
2018-06-29T01:56:12.954Z,18.84
2018-06-29T01:57:13.110Z,18.84
2018-06-29T01:58:13.094Z,18.78
2018-06-29T01:59:13.170Z,18.78
2018-06-29T02:00:13.230Z,18.63
2018-06-29T02:01:13.286Z,18.63
2018-06-29T02:02:13.358Z,18.52
2018-06-29T02:03:13.426Z,18.58
2018-06-29T02:04:13.483Z,18.58
2018-06-29T02:05:13.634Z,18.49
2018-06-29T02:06:13.614Z,18.50
2018-06-29T02:07:13.690Z,18.44
2018-06-29T02:08:13.754Z,18.35
2018-06-29T02:09:13.814Z,18.43
2018-06-29T02:10:13.938Z,18.40
2018-06-29T02:11:13.947Z,18.40
2018-06-29T02:12:14.018Z,18.31
2018-06-29T02:13:14.216Z,18.33
2018-06-29T02:14:14.179Z,18.35
2018-06-29T02:15:14.216Z,18.26
2018-06-29T02:16:14.275Z,18.16
2018-06-29T02:17:14.347Z,18.22
2018-06-29T02:18:14.527Z,18.25
2018-06-29T02:19:14.479Z,18.16
2018-06-29T02:20:14.539Z,18.20
2018-06-29T02:21:14.607Z,18.15
2018-06-29T02:22:14.679Z,18.18
2018-06-29T02:23:14.749Z,18.20
2018-06-29T02:24:14.879Z,18.15
2018-06-29T02:25:14.872Z,18.15
2018-06-29T02:26:14.935Z,18.05
2018-06-29T02:27:15.008Z,18.08
2018-06-29T02:28:15.103Z,18.15
2018-06-29T02:29:15.132Z,18.15
2018-06-29T02:30:15.200Z,18.04
2018-06-29T02:31:15.267Z,18.07
2018-06-29T02:32:15.336Z,18.03
2018-06-29T02:33:15.496Z,18.04
2018-06-29T02:34:15.464Z,18.07
2018-06-29T02:35:15.532Z,18.04
2018-06-29T02:36:15.628Z,18.04
2018-06-29T02:37:15.742Z,18.01
2018-06-29T02:38:15.732Z,17.97
2018-06-29T02:39:15.792Z,18.05
2018-06-29T02:40:15.857Z,18.05
2018-06-29T02:41:15.956Z,18.04
2018-06-29T02:42:15.996Z,18.03
2018-06-29T02:43:16.065Z,18.08
2018-06-29T02:44:16.120Z,18.11
2018-06-29T02:45:16.188Z,18.19
2018-06-29T02:46:16.256Z,18.25
2018-06-29T02:47:16.396Z,18.20
2018-06-29T02:48:16.405Z,18.18
2018-06-29T02:49:16.449Z,18.23
2018-06-29T02:50:16.520Z,18.13
2018-06-29T02:51:16.580Z,18.19
2018-06-29T02:52:16.652Z,18.07
2018-06-29T02:53:16.721Z,18.10
2018-06-29T02:54:16.830Z,18.05
2018-06-29T02:55:16.844Z,18.07
2018-06-29T02:56:16.910Z,18.13
2018-06-29T02:57:16.980Z,18.13
2018-06-29T02:58:17.052Z,18.10
2018-06-29T02:59:17.109Z,18.05
2018-06-29T03:00:17.196Z,18.05
2018-06-29T03:01:17.320Z,18.05
2018-06-29T03:02:17.481Z,18.11
2018-06-29T03:03:17.377Z,18.11
2018-06-29T03:04:17.437Z,18.08
2018-06-29T03:05:17.526Z,18.03
2018-06-29T03:06:17.569Z,18.01
2018-06-29T03:07:17.641Z,17.98
2018-06-29T03:08:17.705Z,17.97
2018-06-29T03:09:17.771Z,17.95
2018-06-29T03:10:17.849Z,17.97
2018-06-29T03:11:17.897Z,17.87
2018-06-29T03:12:17.969Z,17.95
2018-06-29T03:13:18.034Z,17.94
2018-06-29T03:14:18.093Z,17.86
2018-06-29T03:15:18.158Z,17.86
2018-06-29T03:16:18.222Z,17.92
2018-06-29T03:17:18.301Z,17.95
2018-06-29T03:18:18.353Z,17.85
2018-06-29T03:19:18.424Z,17.97
2018-06-29T03:20:18.485Z,17.94
2018-06-29T03:21:18.549Z,17.94
2018-06-29T03:22:18.630Z,17.90
2018-06-29T03:23:18.691Z,17.95
2018-06-29T03:24:19.186Z,17.82
2018-06-29T03:25:18.857Z,17.85
2018-06-29T03:26:18.882Z,17.83
2018-06-29T03:27:18.954Z,17.82
2018-06-29T03:28:19.020Z,17.82
2018-06-29T03:29:19.079Z,17.83
2018-06-29T03:30:19.153Z,17.72
2018-06-29T03:31:19.206Z,17.76
2018-06-29T03:32:19.434Z,17.82
2018-06-29T03:33:19.338Z,17.74
2018-06-29T03:34:19.406Z,17.74
2018-06-29T03:35:19.471Z,17.71
2018-06-29T03:36:19.534Z,17.76
2018-06-29T03:37:19.606Z,17.80
2018-06-29T03:38:19.718Z,17.74
2018-06-29T03:39:19.735Z,17.82
2018-06-29T03:40:19.855Z,17.79
2018-06-29T03:41:19.862Z,17.82
2018-06-29T03:42:19.934Z,17.83
2018-06-29T03:43:20.003Z,17.87
2018-06-29T03:44:20.059Z,17.97
2018-06-29T03:45:20.126Z,17.82
2018-06-29T03:46:20.195Z,17.83
2018-06-29T03:47:20.283Z,17.80
2018-06-29T03:48:20.395Z,17.83
2018-06-29T03:49:20.398Z,17.82
2018-06-29T03:50:20.455Z,17.80
2018-06-29T03:51:20.522Z,17.83
2018-06-29T03:52:20.591Z,17.82
2018-06-29T03:53:20.655Z,17.89
2018-06-29T03:54:20.871Z,17.82
2018-06-29T03:55:20.783Z,17.94
2018-06-29T03:56:20.869Z,17.98
2018-06-29T03:57:20.919Z,17.85
2018-06-29T03:58:20.984Z,17.90
2018-06-29T03:59:21.095Z,17.85
2018-06-29T04:00:21.107Z,17.89
2018-06-29T04:01:21.176Z,17.97
2018-06-29T04:02:21.347Z,17.97
2018-06-29T04:03:21.354Z,17.97
2018-06-29T04:04:21.371Z,18.00
2018-06-29T04:05:21.436Z,18.01
2018-06-29T04:06:21.507Z,18.04
2018-06-29T04:07:21.580Z,18.01
2018-06-29T04:08:21.639Z,18.00
2018-06-29T04:09:21.723Z,18.10
2018-06-29T04:10:21.763Z,18.03
2018-06-29T04:11:21.909Z,18.07
2018-06-29T04:12:21.904Z,18.13
2018-06-29T04:13:22.476Z,18.18
2018-06-29T04:14:22.028Z,18.22
2018-06-29T04:15:22.092Z,18.16
2018-06-29T04:16:22.156Z,18.19
2018-06-29T04:17:22.604Z,18.22
2018-06-29T04:18:22.288Z,18.20
2018-06-29T04:19:22.360Z,18.19
2018-06-29T04:20:22.420Z,18.20
2018-06-29T04:21:22.490Z,18.23
2018-06-29T04:22:22.760Z,18.23
2018-06-29T04:23:22.624Z,18.31
2018-06-29T04:24:22.756Z,18.34
2018-06-29T04:25:22.816Z,18.34
2018-06-29T04:26:22.869Z,18.34
2018-06-29T04:27:22.884Z,18.40
2018-06-29T04:28:22.952Z,18.44
2018-06-29T04:29:23.008Z,18.37
2018-06-29T04:30:23.076Z,18.43
2018-06-29T04:31:23.140Z,18.41
2018-06-29T04:32:23.436Z,18.44
2018-06-29T04:33:23.276Z,18.34
2018-06-29T04:34:23.336Z,18.38
2018-06-29T04:35:23.406Z,18.35
2018-06-29T04:36:23.471Z,18.38
2018-06-29T04:37:23.541Z,18.44
2018-06-29T04:38:23.609Z,18.40
2018-06-29T04:39:23.664Z,18.37
2018-06-29T04:40:23.733Z,18.38
2018-06-29T04:41:23.799Z,18.38
2018-06-29T04:42:23.869Z,18.34
2018-06-29T04:43:23.976Z,18.41
2018-06-29T04:44:23.993Z,18.35
2018-06-29T04:45:24.093Z,18.40
2018-06-29T04:46:24.189Z,18.35
2018-06-29T04:47:24.353Z,18.35
2018-06-29T04:48:24.257Z,18.45
2018-06-29T04:49:24.540Z,18.50
2018-06-29T04:50:24.389Z,18.50
2018-06-29T04:51:24.454Z,18.53
2018-06-29T04:52:24.526Z,18.52
2018-06-29T04:53:25.022Z,18.58
2018-06-29T04:54:24.677Z,18.65
2018-06-29T04:55:24.721Z,18.66
2018-06-29T04:56:24.782Z,18.71
2018-06-29T04:57:24.853Z,18.66
2018-06-29T04:58:25.137Z,18.74
2018-06-29T04:59:24.985Z,18.83
2018-06-29T05:00:25.096Z,18.80
2018-06-29T05:01:25.138Z,18.80
2018-06-29T05:02:25.477Z,18.81
2018-06-29T05:03:25.242Z,18.74
2018-06-29T05:04:25.306Z,18.80
2018-06-29T05:05:25.374Z,18.78
2018-06-29T05:06:25.462Z,18.84
2018-06-29T05:07:25.510Z,18.90
2018-06-29T05:08:25.578Z,18.92
2018-06-29T05:09:25.634Z,18.88
2018-06-29T05:10:25.706Z,18.98
2018-06-29T05:11:25.766Z,18.98
2018-06-29T05:12:25.838Z,18.92
2018-06-29T05:13:26.023Z,18.96
2018-06-29T05:14:25.966Z,18.95
2018-06-29T05:15:26.079Z,18.95
2018-06-29T05:16:26.151Z,18.99
2018-06-29T05:17:26.178Z,18.96
2018-06-29T05:18:26.438Z,19.04
2018-06-29T05:19:26.294Z,19.07
2018-06-29T05:20:26.358Z,19.11
2018-06-29T05:21:26.479Z,19.12
2018-06-29T05:22:26.495Z,19.16
2018-06-29T05:23:26.565Z,19.21
2018-06-29T05:24:27.518Z,19.21
2018-06-29T05:25:26.687Z,19.22
2018-06-29T05:26:26.755Z,19.24
2018-06-29T05:27:26.831Z,19.27
2018-06-29T05:28:26.892Z,19.27
2018-06-29T05:29:27.023Z,19.26
2018-06-29T05:30:27.019Z,19.33
2018-06-29T05:31:27.391Z,19.45
2018-06-29T05:32:27.299Z,19.40
2018-06-29T05:33:27.215Z,19.44
2018-06-29T05:34:27.283Z,19.44
2018-06-29T05:35:27.347Z,19.49
2018-06-29T05:36:27.555Z,19.45
2018-06-29T05:37:27.483Z,19.52
2018-06-29T05:38:27.551Z,19.48
2018-06-29T05:39:27.611Z,19.66
2018-06-29T05:40:27.676Z,19.63
2018-06-29T05:41:27.787Z,19.67
2018-06-29T05:42:27.820Z,19.71
2018-06-29T05:43:27.880Z,19.82
2018-06-29T05:44:27.947Z,19.77
2018-06-29T05:45:28.143Z,19.88
2018-06-29T05:46:28.072Z,19.91
2018-06-29T05:47:28.452Z,19.99
2018-06-29T05:48:28.208Z,20.02
2018-06-29T05:49:28.272Z,20.02
2018-06-29T05:50:28.336Z,20.04
2018-06-29T05:51:28.409Z,20.02
2018-06-29T05:52:28.480Z,20.18
2018-06-29T05:53:28.540Z,20.18
2018-06-29T05:54:28.600Z,20.22
2018-06-29T05:55:28.671Z,20.18
2018-06-29T05:56:28.733Z,20.18
2018-06-29T05:57:28.817Z,20.32
2018-06-29T05:58:28.868Z,20.39
2018-06-29T05:59:28.929Z,20.39
2018-06-29T06:00:29.133Z,20.31
2018-06-29T06:01:29.061Z,20.37
2018-06-29T06:02:29.289Z,20.48
2018-06-29T06:03:29.197Z,20.47
2018-06-29T06:04:29.385Z,20.55
2018-06-29T06:05:29.325Z,20.56
2018-06-29T06:06:29.393Z,20.65
2018-06-29T06:07:29.465Z,20.70
2018-06-29T06:08:29.529Z,20.72
2018-06-29T06:09:29.737Z,20.74
2018-06-29T06:10:29.703Z,20.80
2018-06-29T06:11:29.731Z,20.93
2018-06-29T06:12:29.799Z,21.00
2018-06-29T06:13:29.961Z,21.15
2018-06-29T06:14:29.953Z,21.42
2018-06-29T06:15:29.990Z,21.93
2018-06-29T06:16:30.054Z,22.66
2018-06-29T06:17:30.430Z,23.76
2018-06-29T06:18:30.217Z,24.65
2018-06-29T06:19:30.258Z,25.35
2018-06-29T06:20:30.326Z,26.09
2018-06-29T06:21:30.398Z,26.62
2018-06-29T06:22:30.762Z,26.68
2018-06-29T06:23:30.546Z,26.73
2018-06-29T06:24:30.610Z,27.20
2018-06-29T06:25:30.884Z,27.74
2018-06-29T06:26:30.754Z,28.29
2018-06-29T06:27:30.838Z,28.54
2018-06-29T06:28:30.911Z,29.05
2018-06-29T06:29:30.975Z,29.05
2018-06-29T06:30:31.051Z,29.51
2018-06-29T06:31:31.143Z,29.95
2018-06-29T06:32:31.210Z,30.09
2018-06-29T06:33:31.271Z,30.10
2018-06-29T06:34:31.427Z,30.35
2018-06-29T06:35:31.435Z,30.32
2018-06-29T06:36:31.611Z,30.30
2018-06-29T06:37:31.595Z,30.39
2018-06-29T06:38:31.667Z,30.75
2018-06-29T06:39:31.735Z,30.48
2018-06-29T06:40:31.819Z,30.81
2018-06-29T06:41:31.950Z,30.92
2018-06-29T06:42:32.004Z,30.85
2018-06-29T06:43:32.071Z,31.18
2018-06-29T06:44:32.131Z,31.22
2018-06-29T06:45:32.271Z,31.09
2018-06-29T06:46:32.291Z,31.22
2018-06-29T06:47:32.684Z,31.51
2018-06-29T06:48:32.451Z,31.27
2018-06-29T06:49:32.532Z,31.58
2018-06-29T06:50:32.617Z,31.52
2018-06-29T06:51:32.692Z,31.64
2018-06-29T06:52:32.980Z,32.15
2018-06-29T06:53:33.579Z,32.27
2018-06-29T06:54:33.032Z,32.41
2018-06-29T06:55:33.016Z,32.77
2018-06-29T06:56:33.824Z,32.53
2018-06-29T06:57:33.260Z,32.49
2018-06-29T06:58:33.261Z,32.65
2018-06-29T06:59:33.367Z,33.08
2018-06-29T07:00:33.492Z,33.37
2018-06-29T07:01:33.512Z,33.74
2018-06-29T07:02:33.617Z,34.14
2018-06-29T07:03:33.728Z,34.21
2018-06-29T07:04:35.024Z,34.62
2018-06-29T07:05:33.872Z,34.66
2018-06-29T07:06:33.944Z,34.62
2018-06-29T07:07:34.028Z,33.95
2018-06-29T07:08:34.205Z,34.13
2018-06-29T07:09:34.204Z,33.96
2018-06-29T07:10:34.236Z,34.14
2018-06-29T07:11:34.328Z,34.36
2018-06-29T07:12:34.690Z,34.32
2018-06-29T07:13:34.501Z,34.33
2018-06-29T07:14:34.605Z,34.71
2018-06-29T07:15:34.657Z,34.45
2018-06-29T07:16:35.377Z,34.74
2018-06-29T07:17:34.834Z,35.11
2018-06-29T07:18:34.954Z,35.29
2018-06-29T07:19:34.993Z,35.45
2018-06-29T07:20:35.121Z,35.10
2018-06-29T07:21:35.149Z,35.04
2018-06-29T07:22:35.273Z,34.77
2018-06-29T07:23:35.429Z,34.80
2018-06-29T07:24:35.518Z,34.51
2018-06-29T07:25:35.481Z,34.25
2018-06-29T07:26:35.585Z,34.51
2018-06-29T07:27:35.717Z,34.58
2018-06-29T07:28:35.749Z,33.95
2018-06-29T07:29:35.817Z,33.61
2018-06-29T07:30:35.914Z,33.37
2018-06-29T07:31:35.994Z,33.83
2018-06-29T07:32:36.642Z,33.28
2018-06-29T07:33:36.177Z,33.55
2018-06-29T07:34:36.241Z,33.74
2018-06-29T07:35:36.322Z,33.62
2018-06-29T07:36:36.433Z,33.67
2018-06-29T07:37:36.493Z,33.22
2018-06-29T07:38:36.633Z,33.31
2018-06-29T07:39:36.670Z,33.69
2018-06-29T07:40:36.753Z,33.83
2018-06-29T07:41:36.877Z,34.36
2018-06-29T07:42:36.901Z,34.32
2018-06-29T07:43:36.998Z,34.14
2018-06-29T07:44:37.102Z,34.11
2018-06-29T07:45:37.225Z,34.30
2018-06-29T07:46:37.334Z,34.58
2018-06-29T07:47:37.434Z,34.35
2018-06-29T07:48:37.394Z,33.95
2018-06-29T07:49:37.489Z,34.21
2018-06-29T07:50:37.758Z,34.30
2018-06-29T07:51:37.657Z,34.24
2018-06-29T07:52:37.839Z,34.20
2018-06-29T07:53:37.822Z,33.99
2018-06-29T07:54:37.922Z,33.17
2018-06-29T07:55:37.979Z,33.32
2018-06-29T07:56:38.066Z,33.43
2018-06-29T07:57:38.307Z,33.69
2018-06-29T07:58:38.287Z,33.87
2018-06-29T07:59:38.335Z,34.33
2018-06-29T08:00:38.607Z,34.81
2018-06-29T08:01:38.475Z,35.34
2018-06-29T08:02:38.582Z,35.98
2018-06-29T08:03:38.647Z,35.79
2018-06-29T08:04:38.726Z,35.41
2018-06-29T08:05:38.847Z,35.29
2018-06-29T08:06:38.890Z,34.61
2018-06-29T08:07:38.991Z,35.23
2018-06-29T08:08:39.334Z,35.33
2018-06-29T08:09:39.138Z,35.11
2018-06-29T08:10:39.270Z,35.19
2018-06-29T08:11:39.304Z,34.99
2018-06-29T08:12:39.386Z,34.80
2018-06-29T08:13:39.491Z,34.86
2018-06-29T08:14:39.570Z,35.36
2018-06-29T08:15:39.638Z,34.70
2018-06-29T08:16:39.719Z,34.29
2018-06-29T08:17:39.871Z,34.25
2018-06-29T08:18:39.888Z,33.65
2018-06-29T08:19:39.971Z,33.53
2018-06-29T08:20:40.048Z,33.65
2018-06-29T08:21:40.123Z,33.84
2018-06-29T08:22:40.643Z,33.95
2018-06-29T08:23:40.315Z,33.40
2018-06-29T08:24:40.379Z,33.59
2018-06-29T08:25:40.455Z,33.32
2018-06-29T08:26:40.815Z,33.37
2018-06-29T08:27:40.619Z,33.57
2018-06-29T08:28:40.763Z,33.23
2018-06-29T08:29:40.792Z,32.77
2018-06-29T08:30:40.867Z,32.38
2018-06-29T08:31:40.954Z,32.55
2018-06-29T08:32:41.027Z,33.07
2018-06-29T08:33:41.131Z,33.37
2018-06-29T08:34:41.195Z,34.02
2018-06-29T08:35:41.271Z,34.29
2018-06-29T08:36:41.353Z,34.10
2018-06-29T08:37:41.443Z,34.13
2018-06-29T08:38:41.641Z,33.58
2018-06-29T08:39:41.611Z,33.68
2018-06-29T08:40:41.687Z,33.98
2018-06-29T08:41:41.755Z,34.40
2018-06-29T08:42:41.840Z,34.35
2018-06-29T08:43:41.924Z,34.57
2018-06-29T08:44:42.368Z,34.08
2018-06-29T08:45:42.082Z,33.55
2018-06-29T08:46:42.215Z,33.20
2018-06-29T08:47:42.328Z,33.19
2018-06-29T08:48:42.388Z,33.64
2018-06-29T08:49:42.416Z,33.83
2018-06-29T08:50:42.484Z,33.87
2018-06-29T08:51:42.568Z,34.18
2018-06-29T08:52:42.645Z,34.51
2018-06-29T08:53:43.360Z,35.19
2018-06-29T08:54:43.104Z,35.37
2018-06-29T08:55:42.885Z,34.78
2018-06-29T08:56:42.971Z,34.47
2018-06-29T08:57:43.044Z,34.67
2018-06-29T08:58:43.155Z,34.35
2018-06-29T08:59:43.332Z,34.35
2018-06-29T09:00:43.284Z,34.71
2018-06-29T09:01:43.364Z,35.17
2018-06-29T09:02:43.449Z,35.66
2018-06-29T09:03:43.929Z,35.48
2018-06-29T09:04:43.612Z,35.74
2018-06-29T09:05:43.755Z,35.27
2018-06-29T09:06:43.772Z,34.50
2018-06-29T09:07:43.849Z,34.62
2018-06-29T09:08:43.932Z,34.16
2018-06-29T09:09:44.024Z,33.92
2018-06-29T09:10:44.213Z,33.77
2018-06-29T09:11:44.171Z,34.35
2018-06-29T09:12:44.257Z,33.73
2018-06-29T09:13:44.325Z,33.87
2018-06-29T09:14:44.429Z,34.05
2018-06-29T09:15:44.529Z,34.36
2018-06-29T09:16:44.567Z,34.78
2018-06-29T09:17:44.646Z,34.58
2018-06-29T09:18:44.726Z,34.61
2018-06-29T09:19:44.810Z,34.55
2018-06-29T09:20:44.890Z,34.58
2018-06-29T09:21:45.118Z,34.55
2018-06-29T09:22:45.042Z,35.10
2018-06-29T09:23:45.140Z,35.41
2018-06-29T09:24:45.222Z,35.60
2018-06-29T09:25:45.478Z,35.45
2018-06-29T09:26:45.358Z,35.60
2018-06-29T09:27:45.487Z,35.74
2018-06-29T09:28:45.522Z,35.48
2018-06-29T09:29:45.602Z,35.60
2018-06-29T09:30:45.682Z,35.17
2018-06-29T09:31:45.754Z,35.34
2018-06-29T09:32:45.834Z,35.37
2018-06-29T09:33:45.914Z,35.07
2018-06-29T09:34:46.082Z,34.64
2018-06-29T09:35:46.088Z,34.48
2018-06-29T09:36:46.243Z,34.62
2018-06-29T09:37:46.226Z,35.11
2018-06-29T09:38:46.307Z,35.08
2018-06-29T09:39:46.395Z,35.23
2018-06-29T09:40:46.471Z,35.27
2018-06-29T09:41:46.839Z,35.45
2018-06-29T09:42:46.683Z,35.74
2018-06-29T09:43:46.703Z,35.63
2018-06-29T09:44:47.035Z,35.52
2018-06-29T09:45:46.867Z,35.04
2018-06-29T09:46:46.935Z,34.60
2018-06-29T09:47:47.040Z,34.80
2018-06-29T09:48:47.095Z,34.95
2018-06-29T09:49:47.375Z,34.95
2018-06-29T09:50:47.253Z,35.30
2018-06-29T09:51:47.328Z,35.42
2018-06-29T09:52:47.407Z,35.23
2018-06-29T09:53:47.483Z,35.51
2018-06-29T09:54:47.571Z,35.76
2018-06-29T09:55:47.647Z,35.60
2018-06-29T09:56:47.720Z,35.79
2018-06-29T09:57:47.975Z,35.52
2018-06-29T09:58:47.876Z,35.19
2018-06-29T09:59:47.964Z,34.85
2018-06-29T10:00:48.049Z,35.07
2018-06-29T10:01:48.108Z,35.27
2018-06-29T10:02:48.187Z,35.49
2018-06-29T10:03:48.264Z,35.18
2018-06-29T10:04:48.339Z,35.30
2018-06-29T10:05:49.064Z,35.27
2018-06-29T10:06:48.496Z,35.29
2018-06-29T10:07:48.712Z,35.12
2018-06-29T10:08:48.652Z,34.96
2018-06-29T10:09:48.727Z,35.33
2018-06-29T10:10:48.812Z,35.33
2018-06-29T10:11:48.892Z,35.22
2018-06-29T10:12:49.032Z,34.67
2018-06-29T10:13:49.040Z,34.61
2018-06-29T10:14:49.120Z,34.29
2018-06-29T10:15:49.208Z,34.11
2018-06-29T10:16:49.272Z,34.36
2018-06-29T10:17:49.348Z,34.14
2018-06-29T10:18:49.530Z,34.18
2018-06-29T10:19:49.636Z,34.05
2018-06-29T10:20:49.589Z,33.99
2018-06-29T10:21:49.660Z,34.18
2018-06-29T10:22:49.733Z,34.33
2018-06-29T10:23:49.808Z,34.14
2018-06-29T10:24:49.898Z,33.99
2018-06-29T10:25:49.969Z,33.73
2018-06-29T10:26:50.387Z,33.50
2018-06-29T10:27:50.329Z,33.55
2018-06-29T10:28:50.189Z,33.47
2018-06-29T10:29:50.265Z,33.67
2018-06-29T10:30:50.391Z,34.06
2018-06-29T10:31:50.421Z,33.89
2018-06-29T10:32:50.493Z,34.17
2018-06-29T10:33:50.570Z,33.71
2018-06-29T10:34:50.645Z,33.67
2018-06-29T10:35:50.965Z,33.34
2018-06-29T10:36:50.857Z,33.37
2018-06-29T10:37:50.957Z,33.37
2018-06-29T10:38:51.042Z,32.97
2018-06-29T10:39:51.025Z,32.82
2018-06-29T10:40:51.206Z,32.29
2018-06-29T10:41:51.173Z,32.00
2018-06-29T10:42:51.250Z,32.08
2018-06-29T10:43:51.326Z,31.84
2018-06-29T10:44:51.655Z,31.87
2018-06-29T10:45:51.482Z,31.84
2018-06-29T10:46:51.553Z,31.87
2018-06-29T10:47:51.745Z,31.76
2018-06-29T10:48:51.702Z,31.52
2018-06-29T10:49:51.778Z,31.43
2018-06-29T10:50:51.938Z,31.69
2018-06-29T10:51:52.034Z,31.65
2018-06-29T10:52:52.070Z,31.93
2018-06-29T10:53:52.070Z,32.01
2018-06-29T10:54:52.142Z,32.31
2018-06-29T10:55:52.250Z,32.37
2018-06-29T10:56:52.342Z,32.55
2018-06-29T10:57:52.363Z,32.46
2018-06-29T10:58:52.638Z,32.46
2018-06-29T10:59:52.514Z,32.30
2018-06-29T11:00:52.590Z,31.90
2018-06-29T11:01:52.675Z,31.66
2018-06-29T11:02:52.734Z,31.56
2018-06-29T11:03:52.806Z,31.51
2018-06-29T11:04:52.878Z,31.78
2018-06-29T11:05:52.959Z,31.33
2018-06-29T11:06:53.035Z,31.58
2018-06-29T11:07:53.099Z,31.73
2018-06-29T11:08:53.175Z,31.96
2018-06-29T11:09:53.247Z,32.09
2018-06-29T11:10:53.322Z,31.51
2018-06-29T11:11:53.424Z,31.25
2018-06-29T11:12:53.471Z,31.36
2018-06-29T11:13:53.547Z,31.31
2018-06-29T11:14:53.616Z,31.40
2018-06-29T11:15:53.687Z,31.29
2018-06-29T11:16:53.767Z,31.31
2018-06-29T11:17:53.839Z,31.37
2018-06-29T11:18:53.907Z,31.33
2018-06-29T11:19:53.979Z,31.55
2018-06-29T11:20:54.052Z,31.58
2018-06-29T11:21:54.151Z,31.92
2018-06-29T11:22:54.199Z,32.00
2018-06-29T11:23:54.271Z,32.12
2018-06-29T11:24:54.343Z,32.09
2018-06-29T11:25:54.422Z,32.08
2018-06-29T11:26:54.495Z,32.00
2018-06-29T11:27:54.575Z,31.99
2018-06-29T11:28:54.636Z,32.09
2018-06-29T11:29:54.712Z,32.27
2018-06-29T11:30:54.784Z,32.12
2018-06-29T11:31:54.864Z,31.80
2018-06-29T11:32:54.948Z,31.62
2018-06-29T11:33:55.004Z,31.44
2018-06-29T11:34:55.075Z,31.54
2018-06-29T11:35:55.149Z,31.61
2018-06-29T11:36:55.220Z,31.65
2018-06-29T11:37:55.405Z,31.54
2018-06-29T11:38:55.368Z,31.39
2018-06-29T11:39:55.440Z,31.18
2018-06-29T11:40:55.515Z,31.18
2018-06-29T11:41:55.584Z,31.31
2018-06-29T11:42:55.669Z,31.43
2018-06-29T11:43:55.741Z,31.64
2018-06-29T11:44:55.804Z,31.77
2018-06-29T11:45:55.880Z,31.80
2018-06-29T11:46:55.957Z,31.54
2018-06-29T11:47:56.029Z,31.55
2018-06-29T11:48:56.101Z,31.84
2018-06-29T11:49:56.168Z,31.96
2018-06-29T11:50:56.265Z,32.01
2018-06-29T11:51:56.317Z,32.30
2018-06-29T11:52:56.685Z,32.52
2018-06-29T11:53:56.462Z,32.40
2018-06-29T11:54:56.537Z,32.21
2018-06-29T11:55:56.605Z,32.21
2018-06-29T11:56:56.685Z,32.21
2018-06-29T11:57:56.757Z,31.99
2018-06-29T11:58:56.835Z,32.09
2018-06-29T11:59:56.909Z,32.36
2018-06-29T12:00:56.969Z,32.34
2018-06-29T12:01:57.051Z,32.14
2018-06-29T12:02:57.286Z,32.14
2018-06-29T12:03:57.190Z,32.27
2018-06-29T12:04:57.269Z,32.00
2018-06-29T12:05:57.337Z,31.96
2018-06-29T12:06:57.409Z,31.55
2018-06-29T12:07:57.490Z,31.43
2018-06-29T12:08:57.565Z,31.47
2018-06-29T12:09:57.625Z,31.65
2018-06-29T12:10:57.702Z,32.07
2018-06-29T12:11:57.790Z,32.18
2018-06-29T12:12:57.855Z,32.38
2018-06-29T12:13:57.926Z,32.46
2018-06-29T12:14:58.051Z,32.52
2018-06-29T12:15:58.066Z,32.52
2018-06-29T12:16:58.137Z,32.80
2018-06-29T12:17:58.318Z,32.64
2018-06-29T12:18:58.285Z,32.53
2018-06-29T12:19:58.358Z,32.30
2018-06-29T12:20:58.430Z,32.11
2018-06-29T12:21:58.516Z,32.15
2018-06-29T12:22:58.587Z,32.27
2018-06-29T12:23:58.663Z,32.16
2018-06-29T12:24:58.726Z,32.23
2018-06-29T12:25:58.802Z,32.09
2018-06-29T12:26:58.870Z,32.29
2018-06-29T12:27:58.994Z,32.38
2018-06-29T12:28:59.022Z,32.59
2018-06-29T12:29:59.087Z,32.80
2018-06-29T12:30:59.167Z,32.97
2018-06-29T12:31:59.238Z,33.01
2018-06-29T12:32:59.462Z,33.00
2018-06-29T12:33:59.383Z,33.17
2018-06-29T12:34:59.451Z,32.93
2018-06-29T12:35:59.526Z,32.74
2018-06-29T12:36:59.599Z,32.70
2018-06-29T12:37:59.706Z,32.73
2018-06-29T12:38:59.763Z,32.49
2018-06-29T12:39:59.819Z,32.63
2018-06-29T12:40:59.891Z,32.53
2018-06-29T12:41:59.975Z,32.49
2018-06-29T12:43:00.071Z,32.60
2018-06-29T12:44:00.131Z,32.53
2018-06-29T12:45:00.191Z,32.64
2018-06-29T12:46:00.346Z,32.64
2018-06-29T12:47:00.335Z,32.38
2018-06-29T12:48:00.415Z,32.41
2018-06-29T12:49:00.487Z,32.36
2018-06-29T12:50:00.573Z,32.52
2018-06-29T12:51:00.624Z,32.63
2018-06-29T12:52:00.699Z,32.68
2018-06-29T12:53:00.787Z,32.52